Tecumseh, Nebraska
Current Conditions -  °F | °C
As of 1:15 AM on Saturday 20 Dec 2014 (Local Time) from KAFK Reporting Station
Haze Haze  
Wind Chill: 22°   Ceiling: 500
Heat Index: 30°   Visibility: 3mi
Dew Point: 30°   Wind: 9mph
Humidity: 100%   Direction: 150°SSE
Pressure: 30.13"   Gusts: NA
Location:  40.37°N, 96.2°W
Report Text: KAFK 200715Z AUTO 15008KT 3SM BR OVC005 M01/M01 A3013 RMK AO2 T10101010
Loading
Personal Weather Stations






























Interactive Weather Map New forecast layout! Learn more

10-Day Weather Forecast

Advertisements
Track Severe Weather on mobile